createdAt,value
2018-08-06T00:01:53.006Z,19.24
2018-08-06T00:04:20.161Z,19.31
2018-08-06T00:06:47.308Z,19.53
2018-08-06T00:09:14.584Z,19.59
2018-08-06T00:11:41.743Z,19.66
2018-08-06T00:14:08.920Z,19.54
2018-08-06T00:16:36.124Z,19.38
2018-08-06T00:19:03.323Z,19.48
2018-08-06T00:21:30.419Z,19.22
2018-08-06T00:23:57.592Z,19.02
2018-08-06T00:26:24.795Z,19.18
2018-08-06T00:28:52.113Z,19.33
2018-08-06T00:31:19.246Z,19.37
2018-08-06T00:33:46.419Z,19.38
2018-08-06T00:36:13.561Z,19.41
2018-08-06T00:38:40.664Z,19.28
2018-08-06T00:41:07.809Z,18.84
2018-08-06T00:43:34.981Z,18.70
2018-08-06T00:46:02.169Z,18.52
2018-08-06T00:48:29.356Z,18.76
2018-08-06T00:50:56.489Z,18.66
2018-08-06T00:55:57.797Z,18.22
2018-08-06T00:58:24.969Z,17.76
2018-08-06T01:00:52.141Z,17.71
2018-08-06T01:03:19.352Z,17.86
2018-08-06T01:05:46.586Z,17.73
2018-08-06T01:08:13.716Z,17.24
2018-08-06T01:10:40.966Z,17.20
2018-08-06T01:13:08.100Z,17.46
2018-08-06T01:15:35.360Z,17.57
2018-08-06T01:18:02.531Z,17.69
2018-08-06T01:20:29.705Z,17.83
2018-08-06T01:22:56.945Z,17.61
2018-08-06T01:25:24.109Z,16.95
2018-08-06T01:27:51.364Z,16.80
2018-08-06T01:30:18.583Z,17.12
2018-08-06T01:32:45.759Z,17.41
2018-08-06T01:35:12.943Z,17.57
2018-08-06T01:37:40.081Z,17.77
2018-08-06T01:40:10.522Z,17.38
2018-08-06T01:42:37.655Z,17.30
2018-08-06T01:45:05.321Z,17.71
2018-08-06T01:47:32.461Z,17.21
2018-08-06T01:49:59.644Z,17.08
2018-08-06T01:52:26.799Z,16.97
2018-08-06T01:54:54.001Z,17.19
2018-08-06T01:57:21.145Z,17.13
2018-08-06T01:59:48.299Z,16.90
2018-08-06T02:02:15.485Z,17.19
2018-08-06T02:04:42.667Z,16.95
2018-08-06T02:07:09.861Z,16.27
2018-08-06T02:09:37.148Z,16.60
2018-08-06T02:12:04.669Z,16.84
2018-08-06T02:14:31.795Z,16.93
2018-08-06T02:16:58.960Z,16.94
2018-08-06T02:19:26.156Z,17.03
2018-08-06T02:21:53.356Z,17.18
2018-08-06T02:24:20.620Z,17.11
2018-08-06T02:26:47.908Z,17.09
2018-08-06T02:29:15.046Z,17.07
2018-08-06T02:31:42.232Z,17.12
2018-08-06T02:34:09.521Z,17.22
2018-08-06T02:36:36.709Z,17.16
2018-08-06T02:39:06.529Z,17.09
2018-08-06T02:41:33.684Z,17.03
2018-08-06T02:44:00.836Z,17.04
2018-08-06T02:46:28.004Z,17.05
2018-08-06T02:48:55.109Z,16.41
2018-08-06T02:51:22.271Z,16.54
2018-08-06T02:53:49.425Z,15.91
2018-08-06T02:56:16.680Z,16.37
2018-08-06T02:58:43.805Z,16.59
2018-08-06T03:01:10.981Z,16.64
2018-08-06T03:03:38.217Z,15.87
2018-08-06T03:06:05.839Z,15.66
2018-08-06T03:08:33.115Z,16.09
2018-08-06T03:11:00.246Z,15.82
2018-08-06T03:13:27.388Z,15.54
2018-08-06T03:15:54.547Z,15.36
2018-08-06T03:18:21.684Z,15.41
2018-08-06T03:20:48.878Z,15.85
2018-08-06T03:23:15.988Z,15.99
2018-08-06T03:25:43.132Z,16.34
2018-08-06T03:28:10.303Z,16.40
2018-08-06T03:30:37.448Z,15.91
2018-08-06T03:33:04.880Z,15.92
2018-08-06T03:35:32.001Z,15.86
2018-08-06T03:37:59.196Z,15.99
2018-08-06T03:40:26.361Z,15.77
2018-08-06T03:42:53.507Z,15.53
2018-08-06T03:45:20.728Z,15.50
2018-08-06T03:47:47.860Z,15.73
2018-08-06T03:50:15.069Z,15.82
2018-08-06T03:52:42.515Z,16.01
2018-08-06T03:55:10.406Z,15.34
2018-08-06T03:57:38.103Z,15.59
2018-08-06T04:00:07.208Z,15.71
2018-08-06T04:02:34.405Z,15.98
2018-08-06T04:05:01.546Z,15.86
2018-08-06T04:07:28.820Z,15.07
2018-08-06T04:09:56.003Z,15.11
2018-08-06T04:12:23.184Z,15.28
2018-08-06T04:14:50.360Z,15.55
2018-08-06T04:17:17.492Z,15.79
2018-08-06T04:19:44.759Z,15.90
2018-08-06T04:22:11.889Z,16.10
2018-08-06T04:24:39.036Z,15.72
2018-08-06T04:27:06.205Z,15.40
2018-08-06T04:29:33.348Z,15.29
2018-08-06T04:32:00.574Z,15.20
2018-08-06T04:34:27.681Z,15.73
2018-08-06T04:36:54.814Z,15.94
2018-08-06T04:39:21.962Z,16.05
2018-08-06T04:41:49.120Z,15.81
2018-08-06T04:44:16.252Z,15.80
2018-08-06T04:46:43.421Z,15.89
2018-08-06T04:49:10.532Z,16.10
2018-08-06T04:51:37.719Z,16.19
2018-08-06T04:54:05.776Z,16.24
2018-08-06T04:56:33.051Z,16.51
2018-08-06T04:59:00.171Z,16.51
2018-08-06T05:01:27.347Z,16.31
2018-08-06T05:03:54.540Z,16.49
2018-08-06T05:06:21.680Z,16.49
2018-08-06T05:08:48.889Z,16.76
2018-08-06T05:11:16.056Z,16.71
2018-08-06T05:13:43.289Z,16.80
2018-08-06T05:16:10.420Z,16.91
2018-08-06T05:18:37.576Z,17.23
2018-08-06T05:21:04.960Z,17.42
2018-08-06T05:23:45.324Z,17.41
2018-08-06T05:26:12.500Z,17.58
2018-08-06T05:28:39.658Z,17.38
2018-08-06T05:31:06.834Z,17.51
2018-08-06T05:33:33.968Z,17.66
2018-08-06T05:36:01.140Z,17.88
2018-08-06T05:38:28.281Z,18.12
2018-08-06T05:40:55.420Z,18.29
2018-08-06T05:43:22.537Z,18.48
2018-08-06T05:45:49.724Z,18.64
2018-08-06T05:48:16.922Z,18.79
2018-08-06T05:50:44.089Z,18.94
2018-08-06T05:53:11.252Z,18.85
2018-08-06T05:55:38.468Z,18.91
2018-08-06T05:58:05.631Z,19.27
2018-08-06T06:00:32.840Z,19.32
2018-08-06T06:03:00.052Z,19.66
2018-08-06T06:05:27.206Z,20.11
2018-08-06T06:07:54.367Z,20.30
2018-08-06T06:10:21.622Z,20.60
2018-08-06T06:12:48.773Z,20.46
2018-08-06T06:15:16.532Z,20.87
2018-08-06T06:17:44.059Z,21.19
2018-08-06T06:20:11.608Z,21.28
2018-08-06T06:22:38.767Z,21.32
2018-08-06T06:25:08.385Z,21.48
2018-08-06T06:27:36.044Z,21.82
2018-08-06T06:30:04.665Z,21.85
2018-08-06T06:32:31.827Z,21.70
2018-08-06T06:34:58.985Z,22.17
2018-08-06T06:37:26.142Z,22.33
2018-08-06T06:39:55.053Z,22.49
2018-08-06T06:42:22.194Z,22.64
2018-08-06T06:44:49.397Z,22.46
2018-08-06T06:47:16.605Z,22.63
2018-08-06T06:49:43.800Z,22.78
2018-08-06T06:52:10.976Z,22.95
2018-08-06T06:54:38.164Z,22.94
2018-08-06T06:57:05.728Z,22.89
2018-08-06T06:59:32.919Z,23.31
2018-08-06T07:02:00.126Z,23.28
2018-08-06T07:04:27.466Z,23.40
2018-08-06T07:06:54.604Z,23.58
2018-08-06T07:09:21.854Z,23.96
2018-08-06T07:11:49.024Z,23.81
2018-08-06T07:14:16.190Z,24.04
2018-08-06T07:16:43.409Z,23.98
2018-08-06T07:19:10.608Z,23.70
2018-08-06T07:21:37.787Z,23.86
2018-08-06T07:24:04.986Z,24.02
2018-08-06T07:26:32.340Z,24.17
2018-08-06T07:28:59.484Z,24.74
2018-08-06T07:31:26.695Z,24.75
2018-08-06T07:33:53.843Z,24.62
2018-08-06T07:36:21.009Z,24.56
2018-08-06T07:51:47.743Z,24.60
2018-08-06T07:54:14.972Z,25.04
2018-08-06T07:56:42.128Z,25.59
2018-08-06T07:59:09.284Z,25.24
2018-08-06T08:01:36.493Z,25.63
2018-08-06T08:04:03.668Z,25.47
2018-08-06T08:06:30.895Z,25.85
2018-08-06T08:08:57.929Z,25.76
2018-08-06T08:11:25.123Z,25.67
2018-08-06T08:13:52.313Z,25.71
2018-08-06T08:16:19.539Z,26.08
2018-08-06T08:18:46.791Z,26.07
2018-08-06T08:21:13.993Z,25.97
2018-08-06T08:23:41.213Z,26.23
2018-08-06T08:26:08.432Z,26.23
2018-08-06T08:28:35.641Z,26.10
2018-08-06T08:31:02.845Z,26.23
2018-08-06T08:33:30.013Z,26.33
2018-08-06T08:35:57.231Z,26.43
2018-08-06T08:38:24.442Z,26.24
2018-08-06T08:40:51.631Z,26.27
2018-08-06T08:43:18.764Z,26.10
2018-08-06T08:45:45.995Z,26.50
2018-08-06T08:48:13.200Z,26.72
2018-08-06T08:50:40.432Z,26.95
2018-08-06T08:53:07.650Z,26.72
2018-08-06T08:55:34.873Z,26.82
2018-08-06T08:58:02.283Z,26.46
2018-08-06T09:00:29.457Z,26.73
2018-08-06T09:02:56.716Z,26.72
2018-08-06T09:05:23.933Z,26.96
2018-08-06T09:07:51.721Z,26.72
2018-08-06T09:10:19.628Z,27.46
2018-08-06T09:12:46.953Z,27.88
2018-08-06T09:15:16.644Z,28.23
2018-08-06T09:17:43.921Z,28.13
2018-08-06T09:20:11.213Z,27.87
2018-08-06T09:22:39.185Z,27.82
2018-08-06T09:25:07.401Z,27.50
2018-08-06T09:27:34.594Z,27.71
2018-08-06T09:30:01.981Z,27.73
2018-08-06T09:32:29.186Z,28.00
2018-08-06T09:34:56.293Z,28.14
2018-08-06T09:37:23.467Z,28.24
2018-08-06T09:39:50.676Z,27.63
2018-08-06T09:42:17.908Z,27.88
2018-08-06T09:44:45.129Z,27.39
2018-08-06T09:47:12.312Z,27.37
2018-08-06T09:49:39.629Z,27.74
2018-08-06T09:52:06.807Z,28.48
2018-08-06T09:54:33.994Z,28.53
2018-08-06T09:57:01.193Z,27.94
2018-08-06T09:59:28.384Z,27.85
2018-08-06T10:01:56.737Z,27.87
2018-08-06T10:04:24.700Z,28.10
2018-08-06T10:06:51.857Z,28.55
2018-08-06T10:09:19.185Z,28.84
2018-08-06T10:11:46.374Z,28.51
2018-08-06T10:14:13.552Z,28.10
2018-08-06T10:16:40.767Z,28.11
2018-08-06T10:19:08.057Z,28.15
2018-08-06T10:21:35.484Z,28.54
2018-08-06T10:24:02.692Z,28.41
2018-08-06T10:26:29.857Z,28.80
2018-08-06T10:28:57.212Z,29.22
2018-08-06T10:31:24.500Z,29.29
2018-08-06T10:33:51.969Z,29.28
2018-08-06T10:36:19.174Z,29.51
2018-08-06T10:38:46.377Z,29.39
2018-08-06T10:41:13.575Z,29.83
2018-08-06T10:43:40.761Z,29.97
2018-08-06T10:46:07.957Z,29.88
2018-08-06T10:48:35.073Z,30.11
2018-08-06T10:51:02.242Z,30.20
2018-08-06T10:53:29.393Z,30.22
2018-08-06T10:55:56.685Z,29.92
2018-08-06T10:58:23.895Z,29.63
2018-08-06T11:00:51.069Z,29.32
2018-08-06T11:03:18.204Z,29.79
2018-08-06T11:05:45.393Z,30.34
2018-08-06T11:08:12.569Z,30.38
2018-08-06T11:10:39.813Z,29.99
2018-08-06T11:13:07.000Z,29.91
2018-08-06T11:15:34.153Z,30.41
2018-08-06T11:18:01.300Z,30.32
2018-08-06T11:20:28.550Z,30.00
2018-08-06T11:22:55.717Z,29.70
2018-08-06T11:25:22.902Z,29.82
2018-08-06T11:27:50.062Z,29.66
2018-08-06T11:30:18.842Z,30.47
2018-08-06T11:32:46.755Z,31.32
2018-08-06T11:35:14.547Z,31.83
2018-08-06T11:37:41.961Z,31.81
2018-08-06T11:40:10.645Z,32.00
2018-08-06T11:42:38.743Z,31.78
2018-08-06T11:45:07.245Z,32.13
2018-08-06T11:47:34.412Z,32.62
2018-08-06T11:50:01.641Z,31.88
2018-08-06T11:52:28.768Z,31.75
2018-08-06T11:54:55.893Z,31.80
2018-08-06T11:57:23.200Z,31.55
2018-08-06T11:59:50.332Z,31.32
2018-08-06T12:02:17.585Z,31.86
2018-08-06T12:04:44.776Z,31.90
2018-08-06T12:07:12.044Z,31.45
2018-08-06T12:09:39.273Z,31.57
2018-08-06T12:12:06.535Z,31.97
2018-08-06T12:14:33.715Z,32.04
2018-08-06T12:17:00.952Z,32.29
2018-08-06T12:19:28.217Z,32.50
2018-08-06T12:21:55.732Z,32.92
2018-08-06T12:24:22.909Z,32.18
2018-08-06T12:26:50.130Z,32.59
2018-08-06T12:29:17.344Z,32.04
2018-08-06T12:31:44.524Z,32.52
2018-08-06T12:34:11.693Z,32.66
2018-08-06T12:36:38.980Z,32.41
2018-08-06T12:39:13.386Z,33.02
2018-08-06T12:41:40.642Z,33.89
2018-08-06T12:44:09.773Z,33.31
2018-08-06T12:46:37.268Z,33.68
2018-08-06T12:49:04.752Z,33.98
2018-08-06T12:51:32.041Z,34.59
2018-08-06T12:53:59.233Z,33.92
2018-08-06T12:56:26.413Z,34.03
2018-08-06T12:58:53.605Z,33.97
2018-08-06T13:01:20.799Z,34.17
2018-08-06T13:03:48.260Z,33.42
2018-08-06T13:06:15.575Z,34.14
2018-08-06T13:08:42.969Z,34.76
2018-08-06T13:11:10.123Z,34.57
2018-08-06T13:13:37.336Z,34.53
2018-08-06T13:16:05.068Z,34.16
2018-08-06T13:18:32.348Z,34.48
2018-08-06T13:20:59.595Z,35.44
2018-08-06T13:23:26.812Z,35.46
2018-08-06T13:25:54.040Z,34.89
2018-08-06T13:28:21.272Z,35.06
2018-08-06T13:30:48.504Z,33.92
2018-08-06T13:33:15.744Z,34.50
2018-08-06T13:35:42.979Z,33.96
2018-08-06T13:38:11.039Z,35.23
2018-08-06T13:40:38.313Z,35.15
2018-08-06T13:43:05.625Z,35.05
2018-08-06T13:45:33.499Z,35.19
2018-08-06T13:48:00.697Z,35.70
2018-08-06T13:50:27.955Z,35.71
2018-08-06T13:52:55.441Z,35.46
2018-08-06T13:55:22.639Z,35.06
2018-08-06T13:57:49.912Z,35.37
2018-08-06T14:00:17.937Z,35.42
2018-08-06T14:02:45.432Z,35.19
2018-08-06T14:05:14.076Z,35.02
2018-08-06T14:07:41.921Z,35.03
2018-08-06T14:10:09.428Z,35.30
2018-08-06T14:12:37.439Z,35.31
2018-08-06T14:15:07.213Z,35.80
2018-08-06T14:17:34.342Z,35.19
2018-08-06T14:20:01.924Z,36.07
2018-08-06T14:22:29.149Z,35.54
2018-08-06T14:24:56.411Z,36.31
2018-08-06T14:27:23.604Z,35.54
2018-08-06T14:29:50.870Z,35.38
2018-08-06T14:32:18.160Z,35.62
2018-08-06T14:34:45.543Z,35.94
2018-08-06T14:37:12.700Z,36.09
2018-08-06T14:39:39.867Z,35.27
2018-08-06T14:42:07.071Z,35.81
2018-08-06T14:44:34.268Z,35.83
2018-08-06T14:47:01.488Z,35.71
2018-08-06T14:49:28.721Z,36.01
2018-08-06T14:51:55.915Z,36.05
2018-08-06T14:54:23.082Z,35.81
2018-08-06T14:56:50.300Z,36.65
2018-08-06T14:59:17.509Z,36.66
2018-08-06T15:01:44.657Z,35.88
2018-08-06T15:04:11.821Z,35.73
2018-08-06T15:06:39.017Z,35.53
2018-08-06T15:09:08.262Z,35.84
2018-08-06T15:11:35.469Z,35.07
2018-08-06T15:14:03.149Z,35.33
2018-08-06T15:16:30.409Z,35.82
2018-08-06T15:18:57.621Z,36.41
2018-08-06T15:21:24.859Z,36.97
2018-08-06T15:23:52.047Z,36.37
2018-08-06T15:26:19.223Z,36.14
2018-08-06T15:28:46.387Z,36.19
2018-08-06T15:31:13.644Z,36.69
2018-08-06T15:33:40.882Z,36.31
2018-08-06T15:36:08.057Z,35.68
2018-08-06T15:38:35.525Z,36.44
2018-08-06T15:41:02.741Z,35.57
2018-08-06T15:43:29.959Z,36.02
2018-08-06T15:45:57.110Z,36.63
2018-08-06T15:48:24.357Z,36.84
2018-08-06T15:50:52.013Z,36.43
2018-08-06T15:53:19.212Z,37.34
2018-08-06T15:55:46.400Z,37.31
2018-08-06T15:58:13.583Z,37.52
2018-08-06T16:00:40.735Z,36.79
2018-08-06T16:03:07.910Z,37.07
2018-08-06T16:05:35.129Z,36.61
2018-08-06T16:08:02.248Z,36.27
2018-08-06T16:10:29.468Z,37.46
2018-08-06T16:12:56.737Z,37.10
2018-08-06T16:15:24.070Z,36.79
2018-08-06T16:17:51.305Z,36.25
2018-08-06T16:20:18.707Z,36.24
2018-08-06T16:22:45.960Z,34.85
2018-08-06T16:25:13.619Z,34.60
2018-08-06T16:27:40.862Z,34.37
2018-08-06T16:30:11.770Z,34.38
2018-08-06T16:32:39.071Z,33.59
2018-08-06T16:35:06.295Z,33.21
2018-08-06T16:37:33.551Z,33.01
2018-08-06T16:40:00.713Z,32.69
2018-08-06T16:42:28.067Z,32.43
2018-08-06T16:44:55.268Z,32.48
2018-08-06T16:47:22.461Z,32.32
2018-08-06T16:49:49.680Z,32.12
2018-08-06T16:52:16.901Z,32.25
2018-08-06T16:54:44.051Z,32.32
2018-08-06T16:57:11.263Z,32.40
2018-08-06T16:59:38.428Z,32.50
2018-08-06T17:02:05.656Z,31.98
2018-08-06T17:04:32.904Z,31.75
2018-08-06T17:07:00.088Z,31.74
2018-08-06T17:09:27.284Z,31.46
2018-08-06T17:11:54.485Z,31.57
2018-08-06T17:14:21.792Z,31.39
2018-08-06T17:17:07.218Z,31.28
2018-08-06T17:19:35.959Z,31.35
2018-08-06T17:22:03.379Z,31.27
2018-08-06T17:24:30.707Z,31.20
2018-08-06T17:27:11.173Z,31.16
2018-08-06T17:29:39.290Z,30.85
2018-08-06T17:32:14.795Z,30.80
2018-08-06T17:34:42.316Z,30.78
2018-08-06T17:37:13.065Z,30.59
2018-08-06T17:39:40.471Z,30.76
2018-08-06T17:42:08.536Z,30.48
2018-08-06T17:44:35.926Z,30.57
2018-08-06T17:47:03.189Z,30.55
2018-08-06T17:49:30.418Z,30.56
2018-08-06T17:51:57.666Z,30.43
2018-08-06T17:54:25.050Z,30.19
2018-08-06T17:56:52.323Z,30.22
2018-08-06T17:59:19.516Z,30.12
2018-08-06T18:01:46.736Z,30.23
2018-08-06T18:04:13.910Z,30.23
2018-08-06T18:06:41.073Z,30.14
2018-08-06T18:09:09.892Z,30.03
2018-08-06T18:11:37.188Z,30.07
2018-08-06T18:14:04.506Z,29.84
2018-08-06T18:16:31.986Z,29.88
2018-08-06T18:18:59.162Z,29.63
2018-08-06T18:21:26.448Z,29.62
2018-08-06T18:23:53.633Z,29.47
2018-08-06T18:26:20.847Z,29.38
2018-08-06T18:28:47.976Z,28.76
2018-08-06T18:31:15.225Z,28.85
2018-08-06T18:33:42.422Z,28.68
2018-08-06T18:36:09.651Z,28.63
2018-08-06T18:38:36.828Z,28.72
2018-08-06T18:41:04.013Z,28.70
2018-08-06T18:43:31.192Z,28.33
2018-08-06T18:45:58.352Z,28.22
2018-08-06T18:48:25.464Z,28.23
2018-08-06T18:50:52.591Z,28.20
2018-08-06T18:53:19.745Z,28.05
2018-08-06T18:55:46.940Z,27.72
2018-08-06T18:58:14.129Z,27.19
2018-08-06T19:00:41.341Z,26.93
2018-08-06T19:03:08.606Z,26.75
2018-08-06T19:05:35.825Z,26.55
2018-08-06T19:08:02.976Z,26.71
2018-08-06T19:10:30.176Z,26.62
2018-08-06T19:13:03.192Z,26.51
2018-08-06T19:15:30.450Z,26.31
2018-08-06T19:18:03.294Z,26.45
2018-08-06T19:20:30.492Z,26.60
2018-08-06T19:22:57.803Z,26.51
2018-08-06T19:25:27.208Z,26.21
2018-08-06T19:27:54.812Z,26.15
2018-08-06T19:30:26.604Z,26.13
2018-08-06T19:32:53.816Z,26.04
2018-08-06T19:35:21.108Z,26.19
2018-08-06T19:37:49.800Z,26.09
2018-08-06T19:40:17.020Z,26.05
2018-08-06T19:42:49.948Z,25.82
2018-08-06T19:45:17.128Z,25.85
2018-08-06T19:47:44.739Z,25.68
2018-08-06T19:50:17.565Z,25.62
2018-08-06T19:52:44.896Z,25.46
2018-08-06T19:55:17.795Z,25.59
2018-08-06T19:57:45.126Z,25.57
2018-08-06T20:00:13.140Z,25.72
2018-08-06T20:02:40.877Z,25.66
2018-08-06T20:05:08.576Z,25.70
2018-08-06T20:07:35.870Z,25.65
2018-08-06T20:10:03.839Z,25.58
2018-08-06T20:12:31.579Z,25.57
2018-08-06T20:14:58.752Z,25.12
2018-08-06T20:17:26.016Z,25.27
2018-08-06T20:19:53.210Z,25.08
2018-08-06T20:22:20.393Z,25.23
2018-08-06T20:24:47.581Z,25.05
2018-08-06T20:27:14.843Z,24.74
2018-08-06T20:29:42.028Z,25.02
2018-08-06T20:32:09.189Z,24.62
2018-08-06T20:34:36.443Z,24.78
2018-08-06T20:37:03.673Z,24.63
2018-08-06T20:39:30.896Z,23.74
2018-08-06T20:41:58.088Z,23.90
2018-08-06T20:44:25.288Z,23.48
2018-08-06T20:46:52.484Z,23.67
2018-08-06T20:49:19.706Z,23.64
2018-08-06T20:51:46.900Z,22.93
2018-08-06T20:54:14.394Z,22.66
2018-08-06T20:56:41.696Z,22.62
2018-08-06T20:59:08.836Z,22.39
2018-08-06T21:01:36.057Z,22.51
2018-08-06T21:04:03.315Z,22.32
2018-08-06T21:06:30.553Z,22.33
2018-08-06T21:08:58.637Z,22.19
2018-08-06T21:11:25.924Z,22.42
2018-08-06T21:13:53.246Z,22.13
2018-08-06T21:16:20.593Z,22.25
2018-08-06T21:18:48.028Z,22.32
2018-08-06T21:21:19.999Z,22.11
2018-08-06T21:23:47.464Z,22.08
2018-08-06T21:26:14.901Z,22.15
2018-08-06T21:28:42.072Z,22.35
2018-08-06T21:31:09.386Z,22.46
2018-08-06T21:33:36.597Z,22.39
2018-08-06T21:36:03.828Z,22.59
2018-08-06T21:38:31.037Z,22.32
2018-08-06T21:40:58.251Z,22.18
2018-08-06T21:43:25.461Z,22.55
2018-08-06T21:45:52.695Z,22.31
2018-08-06T21:48:19.916Z,21.67
2018-08-06T21:50:47.360Z,21.53
2018-08-06T21:53:14.603Z,21.40
2018-08-06T21:55:44.498Z,21.70
2018-08-06T21:58:16.411Z,21.63
2018-08-06T22:00:44.623Z,21.71
2018-08-06T22:03:18.288Z,21.53
2018-08-06T22:05:47.178Z,20.95
2018-08-06T22:21:14.306Z,21.26
2018-08-06T22:23:41.484Z,20.84
2018-08-06T22:26:08.633Z,20.78
2018-08-06T22:28:35.851Z,20.88
2018-08-06T22:31:03.150Z,20.99
2018-08-06T22:33:30.440Z,21.37
2018-08-06T22:35:57.603Z,21.40
2018-08-06T22:38:24.774Z,21.31
2018-08-06T22:40:51.968Z,21.38
2018-08-06T22:43:19.092Z,21.16
2018-08-06T22:45:46.247Z,21.33
2018-08-06T22:48:13.454Z,20.98
2018-08-06T22:50:40.717Z,20.63
2018-08-06T22:53:07.948Z,20.55
2018-08-06T22:55:46.704Z,20.66
2018-08-06T22:58:13.901Z,20.74
2018-08-06T23:00:41.114Z,20.75
2018-08-06T23:03:08.311Z,20.71
2018-08-06T23:05:35.495Z,20.33
2018-08-06T23:08:02.820Z,20.13
2018-08-06T23:10:30.005Z,20.39
2018-08-06T23:12:57.143Z,20.47
2018-08-06T23:15:24.378Z,20.47
2018-08-06T23:17:51.544Z,20.40
2018-08-06T23:20:18.628Z,20.46
2018-08-06T23:22:45.796Z,20.44
2018-08-06T23:25:13.032Z,20.38
2018-08-06T23:27:40.251Z,20.50
2018-08-06T23:30:10.737Z,20.57
2018-08-06T23:32:38.431Z,20.38
2018-08-06T23:35:06.552Z,20.52
2018-08-06T23:37:33.740Z,20.43
2018-08-06T23:40:00.909Z,20.45
2018-08-06T23:45:02.176Z,19.87
2018-08-06T23:47:29.386Z,20.04
2018-08-06T23:49:56.557Z,20.24
2018-08-06T23:52:23.789Z,20.27
2018-08-06T23:54:50.907Z,20.00
2018-08-06T23:57:18.134Z,19.91
2018-08-06T23:59:45.316Z,19.64
